Hinton, Missouri
Current Conditions -  °F | °C
As of 8:54 AM on Monday 24 Nov 2014 (Local Time) from KCOU Reporting Station
Overcast Overcast  
Wind Chill: 25°   Ceiling: 3800
Heat Index: 35°   Visibility: 10mi
Dew Point: 26°   Wind: 16mph
Humidity: 70%   Direction: 260°W
Pressure: 29.64"   Gusts: 26mph
Location:  39.0235°N, 92.2896°W
Report Text: KCOU 241454Z 26014G23KT 10SM OVC038 02/M03 A2964 RMK AO2 PK WND 27030/1408 SLP040 T00171033 51038
Loading
Personal Weather Stations






























Interactive Weather Map New forecast layout! Learn more

10-Day Weather Forecast

Advertisements
Track Severe Weather on mobile